Terminal Aerodrome Forecast
Issued by NWS

Home | Current Version | Previous Version | Text Only | Print | Product List | Glossary On
Versions: 1 2 3 4 5 6 7 8 9 10 11 12 13 14
000
FTUS46 KOTX 261132
TAFCOE
TAF
KCOE 261132Z 2612/2712 18005KT P6SM BKN100 OVC150
     FM261500 20008KT P6SM SCT060 BKN100
     FM262100 23007G14KT P6SM FEW050 BKN070
     FM270400 17005KT P6SM SKC=

USA.gov is the U.S. government's official web portal to all federal, state and local government web resources and services.